Debenham, United Kingdom
Current Conditions -  °F | °C
As of 1:50 PM on Thursday 30 Oct 2014 (Local Time) from EGUW Reporting Station
Haze Haze  
Wind Chill: 61°   Ceiling: 1500
Heat Index: 61°   Visibility: 6mi
Dew Point: 57°   Wind: 8mph
Humidity: 88%   Direction: 200°SSW
Pressure: 30.06"   Gusts: NA
Location:  52.22°N, 1.18°E
Report Text: EGUW 301350Z 20007KT 9000 HZ BKN015 16/14 Q1018 WHT BECMG FEW015 BLU
Loading
Personal Weather Stations






























Interactive Weather Map
Tropical Storm Tracking
New forecast layout! Learn more

10-Day Weather Forecast

Advertisements
Track Severe Weather on mobile